Aviation Digital Data Service (ADDS)

Output produced by METARs form (1810 UTC 12 February 2016)
found at http://www.aviationweather.gov/adds/metars/
 
KATL 121742Z 1218/1324 29007KT P6SM FEW150 
     FM130100 32014G22KT P6SM SKC 
     FM131700 33012KT P6SM SKC